sensor_id;sensor_type;location;lat;lon;timestamp;temperature;humidity
33831;DHT22;20137;48.834;8.732;2023-06-14T00:00:52;15.00;77.60
33831;DHT22;20137;48.834;8.732;2023-06-14T00:03:22;15.00;77.90
33831;DHT22;20137;48.834;8.732;2023-06-14T00:05:50;15.00;77.50
33831;DHT22;20137;48.834;8.732;2023-06-14T00:08:15;14.90;77.60
33831;DHT22;20137;48.834;8.732;2023-06-14T00:10:41;14.90;77.60
33831;DHT22;20137;48.834;8.732;2023-06-14T00:13:08;14.80;77.60
33831;DHT22;20137;48.834;8.732;2023-06-14T00:15:34;14.90;78.10
33831;DHT22;20137;48.834;8.732;2023-06-14T00:18:00;14.90;78.40
33831;DHT22;20137;48.834;8.732;2023-06-14T00:20:30;14.90;78.70
33831;DHT22;20137;48.834;8.732;2023-06-14T00:22:58;14.80;79.00
33831;DHT22;20137;48.834;8.732;2023-06-14T00:25:24;14.80;79.30
33831;DHT22;20137;48.834;8.732;2023-06-14T00:27:53;14.70;79.30
33831;DHT22;20137;48.834;8.732;2023-06-14T00:30:20;14.80;79.30
33831;DHT22;20137;48.834;8.732;2023-06-14T00:32:46;14.80;79.40
33831;DHT22;20137;48.834;8.732;2023-06-14T00:35:12;14.70;79.50
33831;DHT22;20137;48.834;8.732;2023-06-14T00:37:38;14.70;79.60
33831;DHT22;20137;48.834;8.732;2023-06-14T00:40:04;14.70;80.00
33831;DHT22;20137;48.834;8.732;2023-06-14T00:42:30;14.60;81.20
33831;DHT22;20137;48.834;8.732;2023-06-14T00:44:57;14.50;82.20
33831;DHT22;20137;48.834;8.732;2023-06-14T00:47:25;14.30;82.50
33831;DHT22;20137;48.834;8.732;2023-06-14T00:49:53;14.20;83.80
33831;DHT22;20137;48.834;8.732;2023-06-14T00:52:20;14.10;83.80
33831;DHT22;20137;48.834;8.732;2023-06-14T00:54:46;13.90;83.90
33831;DHT22;20137;48.834;8.732;2023-06-14T00:57:12;13.80;83.90
33831;DHT22;20137;48.834;8.732;2023-06-14T00:59:42;13.80;84.40
33831;DHT22;20137;48.834;8.732;2023-06-14T01:02:10;13.80;85.50
33831;DHT22;20137;48.834;8.732;2023-06-14T01:04:37;13.80;85.70
33831;DHT22;20137;48.834;8.732;2023-06-14T01:07:26;13.70;85.50
33831;DHT22;20137;48.834;8.732;2023-06-14T01:10:12;13.80;85.90
33831;DHT22;20137;48.834;8.732;2023-06-14T01:12:58;13.60;86.20
33831;DHT22;20137;48.834;8.732;2023-06-14T01:15:25;13.60;85.90
33831;DHT22;20137;48.834;8.732;2023-06-14T01:17:52;13.60;86.50
33831;DHT22;20137;48.834;8.732;2023-06-14T01:20:20;13.50;86.60
33831;DHT22;20137;48.834;8.732;2023-06-14T01:22:53;13.60;86.90
33831;DHT22;20137;48.834;8.732;2023-06-14T01:25:23;13.70;86.50
33831;DHT22;20137;48.834;8.732;2023-06-14T01:27:51;13.70;86.40
33831;DHT22;20137;48.834;8.732;2023-06-14T01:30:17;13.80;86.60
33831;DHT22;20137;48.834;8.732;2023-06-14T01:32:43;13.80;86.60
33831;DHT22;20137;48.834;8.732;2023-06-14T01:35:10;13.80;87.10
33831;DHT22;20137;48.834;8.732;2023-06-14T01:37:35;14.00;86.70
33831;DHT22;20137;48.834;8.732;2023-06-14T01:40:04;13.90;86.60
33831;DHT22;20137;48.834;8.732;2023-06-14T01:42:33;13.90;86.60
33831;DHT22;20137;48.834;8.732;2023-06-14T01:45:01;13.80;87.10
33831;DHT22;20137;48.834;8.732;2023-06-14T01:47:27;13.80;87.30
33831;DHT22;20137;48.834;8.732;2023-06-14T01:49:53;13.70;87.20
33831;DHT22;20137;48.834;8.732;2023-06-14T01:52:19;13.80;87.10
33831;DHT22;20137;48.834;8.732;2023-06-14T01:54:45;13.60;87.00
33831;DHT22;20137;48.834;8.732;2023-06-14T01:57:11;13.60;87.40
33831;DHT22;20137;48.834;8.732;2023-06-14T01:59:37;13.60;87.30
33831;DHT22;20137;48.834;8.732;2023-06-14T02:02:03;13.60;87.30
33831;DHT22;20137;48.834;8.732;2023-06-14T02:04:29;13.50;87.50
33831;DHT22;20137;48.834;8.732;2023-06-14T02:06:54;13.50;87.80
33831;DHT22;20137;48.834;8.732;2023-06-14T02:09:20;13.60;88.30
33831;DHT22;20137;48.834;8.732;2023-06-14T02:11:46;13.30;88.70
33831;DHT22;20137;48.834;8.732;2023-06-14T02:14:12;13.20;89.60
33831;DHT22;20137;48.834;8.732;2023-06-14T02:16:38;13.20;90.10
33831;DHT22;20137;48.834;8.732;2023-06-14T02:19:04;13.00;90.30
33831;DHT22;20137;48.834;8.732;2023-06-14T02:21:30;12.90;90.50
33831;DHT22;20137;48.834;8.732;2023-06-14T02:23:56;12.90;90.90
33831;DHT22;20137;48.834;8.732;2023-06-14T02:26:22;12.80;91.10
33831;DHT22;20137;48.834;8.732;2023-06-14T02:28:50;12.80;91.20
33831;DHT22;20137;48.834;8.732;2023-06-14T02:31:16;12.80;91.40
33831;DHT22;20137;48.834;8.732;2023-06-14T02:33:42;12.70;91.60
33831;DHT22;20137;48.834;8.732;2023-06-14T02:36:07;12.70;91.40
33831;DHT22;20137;48.834;8.732;2023-06-14T02:38:33;12.70;91.50
33831;DHT22;20137;48.834;8.732;2023-06-14T02:40:59;12.50;91.30
33831;DHT22;20137;48.834;8.732;2023-06-14T02:43:29;13.10;91.40
33831;DHT22;20137;48.834;8.732;2023-06-14T02:45:55;12.70;91.10
33831;DHT22;20137;48.834;8.732;2023-06-14T02:48:20;12.60;91.20
33831;DHT22;20137;48.834;8.732;2023-06-14T02:50:46;12.60;91.10
33831;DHT22;20137;48.834;8.732;2023-06-14T02:53:12;12.60;91.50
33831;DHT22;20137;48.834;8.732;2023-06-14T02:55:38;12.50;91.40
33831;DHT22;20137;48.834;8.732;2023-06-14T02:58:05;12.50;91.70
33831;DHT22;20137;48.834;8.732;2023-06-14T03:00:31;12.50;91.80
33831;DHT22;20137;48.834;8.732;2023-06-14T03:02:57;12.50;91.60
33831;DHT22;20137;48.834;8.732;2023-06-14T03:05:22;12.50;91.70
33831;DHT22;20137;48.834;8.732;2023-06-14T03:07:49;12.50;91.40
33831;DHT22;20137;48.834;8.732;2023-06-14T03:10:15;12.40;91.40
33831;DHT22;20137;48.834;8.732;2023-06-14T03:12:41;12.50;91.40
33831;DHT22;20137;48.834;8.732;2023-06-14T03:15:07;12.50;91.70
33831;DHT22;20137;48.834;8.732;2023-06-14T03:17:34;12.40;92.30
33831;DHT22;20137;48.834;8.732;2023-06-14T03:20:00;12.30;92.30
33831;DHT22;20137;48.834;8.732;2023-06-14T03:22:26;12.30;92.20
33831;DHT22;20137;48.834;8.732;2023-06-14T03:24:52;12.40;93.10
33831;DHT22;20137;48.834;8.732;2023-06-14T03:27:19;12.20;92.60
33831;DHT22;20137;48.834;8.732;2023-06-14T03:29:45;12.20;92.30
33831;DHT22;20137;48.834;8.732;2023-06-14T03:32:11;12.40;92.10
33831;DHT22;20137;48.834;8.732;2023-06-14T03:34:37;12.40;92.10
33831;DHT22;20137;48.834;8.732;2023-06-14T03:37:05;12.40;92.00
33831;DHT22;20137;48.834;8.732;2023-06-14T03:39:31;12.50;91.90
33831;DHT22;20137;48.834;8.732;2023-06-14T03:41:56;12.50;92.00
33831;DHT22;20137;48.834;8.732;2023-06-14T03:44:22;12.60;92.00
33831;DHT22;20137;48.834;8.732;2023-06-14T03:46:48;12.60;92.00
33831;DHT22;20137;48.834;8.732;2023-06-14T03:49:13;12.70;91.90
33831;DHT22;20137;48.834;8.732;2023-06-14T03:51:39;13.00;92.20
33831;DHT22;20137;48.834;8.732;2023-06-14T03:54:05;13.00;92.20
33831;DHT22;20137;48.834;8.732;2023-06-14T03:56:31;13.20;91.90
33831;DHT22;20137;48.834;8.732;2023-06-14T03:58:57;13.80;91.20
33831;DHT22;20137;48.834;8.732;2023-06-14T04:01:23;14.30;90.30
33831;DHT22;20137;48.834;8.732;2023-06-14T04:03:52;14.80;88.80
33831;DHT22;20137;48.834;8.732;2023-06-14T04:06:18;15.30;87.40
33831;DHT22;20137;48.834;8.732;2023-06-14T04:08:44;15.70;85.90
33831;DHT22;20137;48.834;8.732;2023-06-14T04:11:11;15.80;84.50
33831;DHT22;20137;48.834;8.732;2023-06-14T04:13:36;15.60;84.30
33831;DHT22;20137;48.834;8.732;2023-06-14T04:16:04;15.50;84.30
33831;DHT22;20137;48.834;8.732;2023-06-14T04:18:30;15.40;84.70
33831;DHT22;20137;48.834;8.732;2023-06-14T04:20:56;15.20;85.10
33831;DHT22;20137;48.834;8.732;2023-06-14T04:23:22;15.10;85.40
33831;DHT22;20137;48.834;8.732;2023-06-14T04:25:47;15.00;85.70
33831;DHT22;20137;48.834;8.732;2023-06-14T04:28:15;15.00;85.60
33831;DHT22;20137;48.834;8.732;2023-06-14T04:30:45;14.90;86.00
33831;DHT22;20137;48.834;8.732;2023-06-14T04:33:12;14.90;86.10
33831;DHT22;20137;48.834;8.732;2023-06-14T04:35:39;14.90;86.50
33831;DHT22;20137;48.834;8.732;2023-06-14T04:38:06;14.90;86.50
33831;DHT22;20137;48.834;8.732;2023-06-14T04:40:35;15.00;87.00
33831;DHT22;20137;48.834;8.732;2023-06-14T04:43:11;15.20;86.70
33831;DHT22;20137;48.834;8.732;2023-06-14T04:45:40;15.50;85.70
33831;DHT22;20137;48.834;8.732;2023-06-14T04:48:06;16.20;84.90
33831;DHT22;20137;48.834;8.732;2023-06-14T04:50:32;17.10;82.00
33831;DHT22;20137;48.834;8.732;2023-06-14T04:52:58;18.00;80.50
33831;DHT22;20137;48.834;8.732;2023-06-14T04:55:25;18.70;78.90
33831;DHT22;20137;48.834;8.732;2023-06-14T04:57:52;19.30;76.50
33831;DHT22;20137;48.834;8.732;2023-06-14T05:00:19;19.90;75.10
33831;DHT22;20137;48.834;8.732;2023-06-14T05:02:45;20.20;74.30
33831;DHT22;20137;48.834;8.732;2023-06-14T05:05:12;20.50;73.10
33831;DHT22;20137;48.834;8.732;2023-06-14T05:07:38;20.80;72.50
33831;DHT22;20137;48.834;8.732;2023-06-14T05:10:05;21.00;72.50
33831;DHT22;20137;48.834;8.732;2023-06-14T05:12:31;21.40;71.60
33831;DHT22;20137;48.834;8.732;2023-06-14T05:14:57;21.70;71.00
33831;DHT22;20137;48.834;8.732;2023-06-14T05:17:24;22.00;70.50
33831;DHT22;20137;48.834;8.732;2023-06-14T05:19:49;22.50;69.80
33831;DHT22;20137;48.834;8.732;2023-06-14T05:22:16;22.80;69.20
33831;DHT22;20137;48.834;8.732;2023-06-14T05:24:41;23.00;68.70
33831;DHT22;20137;48.834;8.732;2023-06-14T05:27:07;22.80;69.00
33831;DHT22;20137;48.834;8.732;2023-06-14T05:29:33;22.70;68.90
33831;DHT22;20137;48.834;8.732;2023-06-14T05:31:59;22.20;69.60
33831;DHT22;20137;48.834;8.732;2023-06-14T05:34:25;22.00;69.60
33831;DHT22;20137;48.834;8.732;2023-06-14T05:36:50;21.50;71.30
33831;DHT22;20137;48.834;8.732;2023-06-14T05:39:16;20.60;71.90
33831;DHT22;20137;48.834;8.732;2023-06-14T05:41:42;20.40;74.20
33831;DHT22;20137;48.834;8.732;2023-06-14T05:44:08;19.90;74.50
33831;DHT22;20137;48.834;8.732;2023-06-14T05:46:34;19.30;76.00
33831;DHT22;20137;48.834;8.732;2023-06-14T05:49:00;18.80;76.50
33831;DHT22;20137;48.834;8.732;2023-06-14T05:51:26;18.60;77.80
33831;DHT22;20137;48.834;8.732;2023-06-14T05:53:52;18.50;78.20
33831;DHT22;20137;48.834;8.732;2023-06-14T05:56:18;18.40;78.90
33831;DHT22;20137;48.834;8.732;2023-06-14T05:58:45;18.40;79.70
33831;DHT22;20137;48.834;8.732;2023-06-14T06:01:11;18.60;79.90
33831;DHT22;20137;48.834;8.732;2023-06-14T06:03:36;18.80;79.50
33831;DHT22;20137;48.834;8.732;2023-06-14T06:06:02;18.90;80.10
33831;DHT22;20137;48.834;8.732;2023-06-14T06:08:29;19.00;80.30
33831;DHT22;20137;48.834;8.732;2023-06-14T06:10:55;19.00;80.70
33831;DHT22;20137;48.834;8.732;2023-06-14T06:13:21;19.10;80.10
33831;DHT22;20137;48.834;8.732;2023-06-14T06:15:47;19.20;80.10
33831;DHT22;20137;48.834;8.732;2023-06-14T06:18:12;19.30;79.60
33831;DHT22;20137;48.834;8.732;2023-06-14T06:20:38;19.20;80.50
33831;DHT22;20137;48.834;8.732;2023-06-14T06:23:03;19.40;79.60
33831;DHT22;20137;48.834;8.732;2023-06-14T06:25:29;19.40;79.20
33831;DHT22;20137;48.834;8.732;2023-06-14T06:27:57;19.40;81.00
33831;DHT22;20137;48.834;8.732;2023-06-14T06:30:24;19.40;79.70
33831;DHT22;20137;48.834;8.732;2023-06-14T06:32:50;19.50;79.70
33831;DHT22;20137;48.834;8.732;2023-06-14T06:35:16;19.60;78.80
33831;DHT22;20137;48.834;8.732;2023-06-14T06:37:42;19.70;79.00
33831;DHT22;20137;48.834;8.732;2023-06-14T06:40:09;19.60;77.40
33831;DHT22;20137;48.834;8.732;2023-06-14T06:42:35;19.80;79.20
33831;DHT22;20137;48.834;8.732;2023-06-14T06:45:01;19.90;78.90
33831;DHT22;20137;48.834;8.732;2023-06-14T06:47:27;20.00;78.80
33831;DHT22;20137;48.834;8.732;2023-06-14T06:49:55;20.10;79.30
33831;DHT22;20137;48.834;8.732;2023-06-14T06:52:21;20.10;77.50
33831;DHT22;20137;48.834;8.732;2023-06-14T06:54:46;20.20;78.50
33831;DHT22;20137;48.834;8.732;2023-06-14T06:57:12;20.20;78.50
33831;DHT22;20137;48.834;8.732;2023-06-14T06:59:38;20.20;79.00
33831;DHT22;20137;48.834;8.732;2023-06-14T07:02:04;20.30;79.90
33831;DHT22;20137;48.834;8.732;2023-06-14T07:04:30;20.30;78.20
33831;DHT22;20137;48.834;8.732;2023-06-14T07:06:56;20.40;79.70
33831;DHT22;20137;48.834;8.732;2023-06-14T07:09:22;20.40;78.20
33831;DHT22;20137;48.834;8.732;2023-06-14T07:11:48;20.30;79.20
33831;DHT22;20137;48.834;8.732;2023-06-14T07:14:14;20.00;79.40
33831;DHT22;20137;48.834;8.732;2023-06-14T07:16:39;19.80;79.90
33831;DHT22;20137;48.834;8.732;2023-06-14T07:19:06;19.60;80.80
33831;DHT22;20137;48.834;8.732;2023-06-14T07:21:32;19.60;80.80
33831;DHT22;20137;48.834;8.732;2023-06-14T07:23:58;19.60;80.40
33831;DHT22;20137;48.834;8.732;2023-06-14T07:26:23;19.40;80.70
33831;DHT22;20137;48.834;8.732;2023-06-14T07:28:49;19.30;82.00
33831;DHT22;20137;48.834;8.732;2023-06-14T07:31:15;19.40;81.60
33831;DHT22;20137;48.834;8.732;2023-06-14T07:33:42;19.40;82.20
33831;DHT22;20137;48.834;8.732;2023-06-14T07:36:08;19.30;83.00
33831;DHT22;20137;48.834;8.732;2023-06-14T07:38:34;19.20;83.60
33831;DHT22;20137;48.834;8.732;2023-06-14T07:41:00;19.00;83.20
33831;DHT22;20137;48.834;8.732;2023-06-14T07:43:26;19.10;81.00
33831;DHT22;20137;48.834;8.732;2023-06-14T07:45:51;19.20;83.10
33831;DHT22;20137;48.834;8.732;2023-06-14T07:48:18;19.30;82.60
33831;DHT22;20137;48.834;8.732;2023-06-14T07:50:44;19.30;83.00
33831;DHT22;20137;48.834;8.732;2023-06-14T07:53:09;19.30;82.30
33831;DHT22;20137;48.834;8.732;2023-06-14T07:55:35;19.40;82.00
33831;DHT22;20137;48.834;8.732;2023-06-14T07:58:06;19.30;83.40
33831;DHT22;20137;48.834;8.732;2023-06-14T08:00:32;19.40;81.90
33831;DHT22;20137;48.834;8.732;2023-06-14T08:02:58;19.50;81.00
33831;DHT22;20137;48.834;8.732;2023-06-14T08:05:27;19.50;82.70
33831;DHT22;20137;48.834;8.732;2023-06-14T08:07:53;19.50;82.10
33831;DHT22;20137;48.834;8.732;2023-06-14T08:10:20;19.60;81.20
33831;DHT22;20137;48.834;8.732;2023-06-14T08:12:46;19.70;80.50
33831;DHT22;20137;48.834;8.732;2023-06-14T08:15:11;19.70;82.60
33831;DHT22;20137;48.834;8.732;2023-06-14T08:17:37;19.70;82.00
33831;DHT22;20137;48.834;8.732;2023-06-14T08:20:03;19.50;81.30
33831;DHT22;20137;48.834;8.732;2023-06-14T08:22:30;19.50;81.30
33831;DHT22;20137;48.834;8.732;2023-06-14T08:24:59;19.50;81.30
33831;DHT22;20137;48.834;8.732;2023-06-14T08:27:26;19.60;80.90
33831;DHT22;20137;48.834;8.732;2023-06-14T08:29:52;19.70;81.10
33831;DHT22;20137;48.834;8.732;2023-06-14T08:32:18;19.80;81.90
33831;DHT22;20137;48.834;8.732;2023-06-14T08:34:43;19.80;81.30
33831;DHT22;20137;48.834;8.732;2023-06-14T08:37:09;19.60;82.20
33831;DHT22;20137;48.834;8.732;2023-06-14T08:39:35;19.70;80.80
33831;DHT22;20137;48.834;8.732;2023-06-14T08:42:02;19.60;81.30
33831;DHT22;20137;48.834;8.732;2023-06-14T08:44:29;19.70;82.00
33831;DHT22;20137;48.834;8.732;2023-06-14T08:46:59;19.80;82.00
33831;DHT22;20137;48.834;8.732;2023-06-14T08:49:25;19.80;80.80
33831;DHT22;20137;48.834;8.732;2023-06-14T08:51:58;19.80;81.00
33831;DHT22;20137;48.834;8.732;2023-06-14T08:54:28;19.80;81.60
33831;DHT22;20137;48.834;8.732;2023-06-14T08:56:56;19.80;82.40
33831;DHT22;20137;48.834;8.732;2023-06-14T08:59:31;19.90;81.50
33831;DHT22;20137;48.834;8.732;2023-06-14T09:02:05;20.10;81.10
33831;DHT22;20137;48.834;8.732;2023-06-14T09:04:31;20.30;82.00
33831;DHT22;20137;48.834;8.732;2023-06-14T09:06:57;20.10;81.00
33831;DHT22;20137;48.834;8.732;2023-06-14T09:09:24;20.20;80.20
33831;DHT22;20137;48.834;8.732;2023-06-14T09:11:51;20.20;81.40
33831;DHT22;20137;48.834;8.732;2023-06-14T09:14:18;20.40;81.90
33831;DHT22;20137;48.834;8.732;2023-06-14T09:16:44;20.50;80.50
33831;DHT22;20137;48.834;8.732;2023-06-14T09:19:14;20.40;80.80
33831;DHT22;20137;48.834;8.732;2023-06-14T09:21:47;20.30;79.20
33831;DHT22;20137;48.834;8.732;2023-06-14T09:24:14;20.30;78.80
33831;DHT22;20137;48.834;8.732;2023-06-14T09:26:39;20.50;79.40
33831;DHT22;20137;48.834;8.732;2023-06-14T09:29:06;20.70;78.40
33831;DHT22;20137;48.834;8.732;2023-06-14T09:31:32;20.70;78.70
33831;DHT22;20137;48.834;8.732;2023-06-14T09:33:58;21.00;78.00
33831;DHT22;20137;48.834;8.732;2023-06-14T09:36:27;20.90;75.80
33831;DHT22;20137;48.834;8.732;2023-06-14T09:38:53;21.00;76.90
33831;DHT22;20137;48.834;8.732;2023-06-14T09:41:20;21.00;76.80
33831;DHT22;20137;48.834;8.732;2023-06-14T09:43:47;21.20;78.20
33831;DHT22;20137;48.834;8.732;2023-06-14T09:46:13;21.20;77.90
33831;DHT22;20137;48.834;8.732;2023-06-14T09:48:39;21.40;75.50
33831;DHT22;20137;48.834;8.732;2023-06-14T09:51:10;21.20;75.30
33831;DHT22;20137;48.834;8.732;2023-06-14T09:53:40;21.20;77.00
33831;DHT22;20137;48.834;8.732;2023-06-14T09:56:07;21.20;77.80
33831;DHT22;20137;48.834;8.732;2023-06-14T09:58:35;21.10;76.30
33831;DHT22;20137;48.834;8.732;2023-06-14T10:01:06;21.00;77.60
33831;DHT22;20137;48.834;8.732;2023-06-14T10:03:34;21.10;77.20
33831;DHT22;20137;48.834;8.732;2023-06-14T10:06:03;21.10;75.90
33831;DHT22;20137;48.834;8.732;2023-06-14T10:08:36;21.20;75.60
33831;DHT22;20137;48.834;8.732;2023-06-14T10:11:03;21.10;76.90
33831;DHT22;20137;48.834;8.732;2023-06-14T10:13:31;21.50;75.70
33831;DHT22;20137;48.834;8.732;2023-06-14T10:16:12;21.70;75.40
33831;DHT22;20137;48.834;8.732;2023-06-14T10:18:49;21.70;74.20
33831;DHT22;20137;48.834;8.732;2023-06-14T10:21:25;21.70;74.90
33831;DHT22;20137;48.834;8.732;2023-06-14T10:23:56;21.70;74.50
33831;DHT22;20137;48.834;8.732;2023-06-14T10:26:23;21.90;75.10
33831;DHT22;20137;48.834;8.732;2023-06-14T10:29:00;21.60;73.40
33831;DHT22;20137;48.834;8.732;2023-06-14T10:31:50;21.60;75.00
33831;DHT22;20137;48.834;8.732;2023-06-14T10:34:29;21.40;75.20
33831;DHT22;20137;48.834;8.732;2023-06-14T10:37:03;21.70;75.20
33831;DHT22;20137;48.834;8.732;2023-06-14T10:39:29;21.70;75.80
33831;DHT22;20137;48.834;8.732;2023-06-14T10:41:56;21.60;73.80
33831;DHT22;20137;48.834;8.732;2023-06-14T10:46:55;22.00;73.00
33831;DHT22;20137;48.834;8.732;2023-06-14T10:49:41;22.20;73.10
33831;DHT22;20137;48.834;8.732;2023-06-14T10:52:15;22.20;72.90
33831;DHT22;20137;48.834;8.732;2023-06-14T10:55:00;22.00;72.40
33831;DHT22;20137;48.834;8.732;2023-06-14T10:57:26;21.90;73.50
33831;DHT22;20137;48.834;8.732;2023-06-14T10:59:52;21.80;74.80
33831;DHT22;20137;48.834;8.732;2023-06-14T11:02:38;21.90;72.90
33831;DHT22;20137;48.834;8.732;2023-06-14T11:05:14;21.90;73.00
33831;DHT22;20137;48.834;8.732;2023-06-14T11:07:55;22.00;73.10
33831;DHT22;20137;48.834;8.732;2023-06-14T11:10:36;21.90;72.40
33831;DHT22;20137;48.834;8.732;2023-06-14T11:13:06;22.10;73.40
33831;DHT22;20137;48.834;8.732;2023-06-14T11:15:34;22.20;74.60
33831;DHT22;20137;48.834;8.732;2023-06-14T11:18:01;22.10;74.10
33831;DHT22;20137;48.834;8.732;2023-06-14T11:20:31;21.70;73.90
33831;DHT22;20137;48.834;8.732;2023-06-14T11:22:57;21.60;73.30
33831;DHT22;20137;48.834;8.732;2023-06-14T11:25:22;21.50;73.80
33831;DHT22;20137;48.834;8.732;2023-06-14T11:27:52;21.70;71.70
33831;DHT22;20137;48.834;8.732;2023-06-14T11:30:18;21.60;71.80
33831;DHT22;20137;48.834;8.732;2023-06-14T11:32:51;22.10;72.20
33831;DHT22;20137;48.834;8.732;2023-06-14T11:35:18;22.40;71.70
33831;DHT22;20137;48.834;8.732;2023-06-14T11:37:44;22.80;72.30
33831;DHT22;20137;48.834;8.732;2023-06-14T11:40:11;22.80;71.00
33831;DHT22;20137;48.834;8.732;2023-06-14T11:42:38;22.50;72.00
33831;DHT22;20137;48.834;8.732;2023-06-14T11:45:07;22.30;71.50
33831;DHT22;20137;48.834;8.732;2023-06-14T11:47:33;22.00;72.10
33831;DHT22;20137;48.834;8.732;2023-06-14T11:50:00;21.70;72.50
33831;DHT22;20137;48.834;8.732;2023-06-14T11:52:26;21.80;72.10
33831;DHT22;20137;48.834;8.732;2023-06-14T11:54:52;21.80;73.70
33831;DHT22;20137;48.834;8.732;2023-06-14T11:57:18;22.00;73.50
33831;DHT22;20137;48.834;8.732;2023-06-14T11:59:45;22.10;71.50
33831;DHT22;20137;48.834;8.732;2023-06-14T12:02:14;22.20;71.10
33831;DHT22;20137;48.834;8.732;2023-06-14T12:04:41;22.30;71.20
33831;DHT22;20137;48.834;8.732;2023-06-14T12:07:14;22.10;72.70
33831;DHT22;20137;48.834;8.732;2023-06-14T12:12:25;21.90;72.30
33831;DHT22;20137;48.834;8.732;2023-06-14T12:14:51;21.90;70.50
33831;DHT22;20137;48.834;8.732;2023-06-14T12:17:18;21.80;71.80
33831;DHT22;20137;48.834;8.732;2023-06-14T12:19:44;21.80;71.60
33831;DHT22;20137;48.834;8.732;2023-06-14T12:22:11;22.30;72.30
33831;DHT22;20137;48.834;8.732;2023-06-14T12:24:37;22.40;69.80
33831;DHT22;20137;48.834;8.732;2023-06-14T12:27:05;22.30;71.50
33831;DHT22;20137;48.834;8.732;2023-06-14T12:29:31;22.60;69.50
33831;DHT22;20137;48.834;8.732;2023-06-14T12:31:57;22.70;69.90
33831;DHT22;20137;48.834;8.732;2023-06-14T12:34:24;22.80;70.80
33831;DHT22;20137;48.834;8.732;2023-06-14T12:36:56;22.80;70.40
33831;DHT22;20137;48.834;8.732;2023-06-14T12:39:22;22.10;71.10
33831;DHT22;20137;48.834;8.732;2023-06-14T12:41:48;21.90;71.00
33831;DHT22;20137;48.834;8.732;2023-06-14T12:44:14;21.80;71.70
33831;DHT22;20137;48.834;8.732;2023-06-14T12:46:41;21.90;70.80
33831;DHT22;20137;48.834;8.732;2023-06-14T12:49:09;22.00;70.10
33831;DHT22;20137;48.834;8.732;2023-06-14T12:51:35;22.60;70.50
33831;DHT22;20137;48.834;8.732;2023-06-14T12:54:01;22.70;69.70
33831;DHT22;20137;48.834;8.732;2023-06-14T12:56:27;22.70;70.20
33831;DHT22;20137;48.834;8.732;2023-06-14T12:58:53;22.70;70.30
33831;DHT22;20137;48.834;8.732;2023-06-14T13:01:19;22.90;72.50
33831;DHT22;20137;48.834;8.732;2023-06-14T13:03:46;22.70;70.80
33831;DHT22;20137;48.834;8.732;2023-06-14T13:06:13;22.90;71.90
33831;DHT22;20137;48.834;8.732;2023-06-14T13:08:39;22.60;70.90
33831;DHT22;20137;48.834;8.732;2023-06-14T13:11:04;22.30;71.90
33831;DHT22;20137;48.834;8.732;2023-06-14T13:13:30;22.30;71.00
33831;DHT22;20137;48.834;8.732;2023-06-14T13:15:56;22.20;71.40
33831;DHT22;20137;48.834;8.732;2023-06-14T13:18:21;22.20;72.30
33831;DHT22;20137;48.834;8.732;2023-06-14T13:20:47;22.10;69.70
33831;DHT22;20137;48.834;8.732;2023-06-14T13:23:13;22.40;71.00
33831;DHT22;20137;48.834;8.732;2023-06-14T13:25:39;22.50;70.50
33831;DHT22;20137;48.834;8.732;2023-06-14T13:28:05;22.90;70.20
33831;DHT22;20137;48.834;8.732;2023-06-14T13:30:32;23.30;70.40
33831;DHT22;20137;48.834;8.732;2023-06-14T13:32:58;23.40;69.80
33831;DHT22;20137;48.834;8.732;2023-06-14T13:35:27;23.10;70.50
33831;DHT22;20137;48.834;8.732;2023-06-14T13:37:53;22.30;71.20
33831;DHT22;20137;48.834;8.732;2023-06-14T13:40:18;21.70;71.20
33831;DHT22;20137;48.834;8.732;2023-06-14T13:42:45;21.70;72.30
33831;DHT22;20137;48.834;8.732;2023-06-14T13:45:12;21.70;73.40
33831;DHT22;20137;48.834;8.732;2023-06-14T13:47:38;21.60;73.30
33831;DHT22;20137;48.834;8.732;2023-06-14T13:50:05;22.00;74.70
33831;DHT22;20137;48.834;8.732;2023-06-14T13:52:30;22.10;74.70
33831;DHT22;20137;48.834;8.732;2023-06-14T13:54:56;22.30;70.90
33831;DHT22;20137;48.834;8.732;2023-06-14T13:57:22;22.20;70.70
33831;DHT22;20137;48.834;8.732;2023-06-14T13:59:48;21.90;73.30
33831;DHT22;20137;48.834;8.732;2023-06-14T14:02:14;22.10;71.70
33831;DHT22;20137;48.834;8.732;2023-06-14T14:04:40;22.30;72.40
33831;DHT22;20137;48.834;8.732;2023-06-14T14:07:07;22.60;70.90
33831;DHT22;20137;48.834;8.732;2023-06-14T14:09:34;22.40;71.30
33831;DHT22;20137;48.834;8.732;2023-06-14T14:12:01;22.40;70.40
33831;DHT22;20137;48.834;8.732;2023-06-14T14:14:32;22.50;70.80
33831;DHT22;20137;48.834;8.732;2023-06-14T14:16:57;22.40;71.60
33831;DHT22;20137;48.834;8.732;2023-06-14T14:19:23;22.50;71.30
33831;DHT22;20137;48.834;8.732;2023-06-14T14:21:49;22.30;70.50
33831;DHT22;20137;48.834;8.732;2023-06-14T14:24:15;22.40;70.80
33831;DHT22;20137;48.834;8.732;2023-06-14T14:26:41;22.70;71.60
33831;DHT22;20137;48.834;8.732;2023-06-14T14:29:07;22.80;69.60
33831;DHT22;20137;48.834;8.732;2023-06-14T14:31:34;22.80;72.10
33831;DHT22;20137;48.834;8.732;2023-06-14T14:33:59;22.80;70.60
33831;DHT22;20137;48.834;8.732;2023-06-14T14:36:25;22.80;72.50
33831;DHT22;20137;48.834;8.732;2023-06-14T14:38:50;23.00;71.90
33831;DHT22;20137;48.834;8.732;2023-06-14T14:41:19;23.10;70.50
33831;DHT22;20137;48.834;8.732;2023-06-14T14:43:45;23.20;68.80
33831;DHT22;20137;48.834;8.732;2023-06-14T14:46:11;23.20;70.70
33831;DHT22;20137;48.834;8.732;2023-06-14T14:48:36;23.10;69.30
33831;DHT22;20137;48.834;8.732;2023-06-14T14:51:02;23.00;69.50
33831;DHT22;20137;48.834;8.732;2023-06-14T14:53:28;22.90;70.40
33831;DHT22;20137;48.834;8.732;2023-06-14T14:55:54;22.90;69.80
33831;DHT22;20137;48.834;8.732;2023-06-14T14:58:20;22.70;69.10
33831;DHT22;20137;48.834;8.732;2023-06-14T15:00:46;22.50;70.50
33831;DHT22;20137;48.834;8.732;2023-06-14T15:03:13;22.80;69.10
33831;DHT22;20137;48.834;8.732;2023-06-14T15:05:39;22.90;69.60
33831;DHT22;20137;48.834;8.732;2023-06-14T15:08:05;23.10;70.40
33831;DHT22;20137;48.834;8.732;2023-06-14T15:10:41;23.30;68.60
33831;DHT22;20137;48.834;8.732;2023-06-14T15:13:10;23.30;68.40
33831;DHT22;20137;48.834;8.732;2023-06-14T15:15:36;23.40;69.20
33831;DHT22;20137;48.834;8.732;2023-06-14T15:18:02;23.40;68.50
33831;DHT22;20137;48.834;8.732;2023-06-14T15:20:29;23.30;68.50
33831;DHT22;20137;48.834;8.732;2023-06-14T15:22:55;22.80;69.60
33831;DHT22;20137;48.834;8.732;2023-06-14T15:25:28;22.90;70.20
33831;DHT22;20137;48.834;8.732;2023-06-14T15:27:54;23.20;69.40
33831;DHT22;20137;48.834;8.732;2023-06-14T15:30:21;23.10;71.80
33831;DHT22;20137;48.834;8.732;2023-06-14T15:32:47;23.10;70.40
33831;DHT22;20137;48.834;8.732;2023-06-14T15:35:13;23.20;69.30